Terminal Aerodrome Forecast
Issued by NWS

Home | Current Version | Previous Version | Text Only | Print | Product List | Glossary Off
Versions: 1 2 3 4 5 6 7 8 9 10 11 12 13 14

000
FTUS43 KGRB 200141 AAA
TAFATW
TAF AMD
KATW 200141Z 2002/2024 16012KT P6SM VCTS BKN070CB WS015/21035KT
     FM200300 17010KT P6SM BKN050 WS015/22035KT
     FM200600 18008KT P6SM BKN050
     FM201000 VRB03KT 6SM BR BKN012
      TEMPO 2011/2015 3SM BR BKN007
     FM201600 34007KT P6SM SCT020 BKN150
     FM201800 01011KT P6SM BKN150=

USA.gov is the U.S. government's official web portal to all federal, state and local government web resources and services.